sensor_id;sensor_type;location;lat;lon;timestamp;pressure;altitude;pressure_sealevel;temperature;humidity
7662;BME280;30314;48.184;11.510;2023-03-14T00:01:24;94450.72;;;9.63;100.00
7662;BME280;30314;48.184;11.510;2023-03-14T00:03:50;94470.81;;;9.85;100.00
7662;BME280;30314;48.184;11.510;2023-03-14T00:06:17;94473.94;;;9.88;100.00
7662;BME280;30314;48.184;11.510;2023-03-14T00:08:45;94469.28;;;9.84;100.00
7662;BME280;30314;48.184;11.510;2023-03-14T00:11:14;94462.16;;;9.85;100.00
7662;BME280;30314;48.184;11.510;2023-03-14T00:13:41;94454.88;;;9.82;100.00
7662;BME280;30314;48.184;11.510;2023-03-14T00:16:10;94439.25;;;9.68;100.00
7662;BME280;30314;48.184;11.510;2023-03-14T00:18:37;94454.44;;;9.71;100.00
7662;BME280;30314;48.184;11.510;2023-03-14T00:21:05;94473.34;;;9.82;100.00
7662;BME280;30314;48.184;11.510;2023-03-14T00:23:33;94484.63;;;9.82;100.00
7662;BME280;30314;48.184;11.510;2023-03-14T00:26:11;94478.47;;;9.78;100.00
7662;BME280;30314;48.184;11.510;2023-03-14T00:28:40;94478.91;;;9.80;100.00
7662;BME280;30314;48.184;11.510;2023-03-14T00:31:09;94453.47;;;9.84;100.00
7662;BME280;30314;48.184;11.510;2023-03-14T00:33:36;94425.75;;;9.69;100.00
7662;BME280;30314;48.184;11.510;2023-03-14T00:36:06;94385.66;;;9.46;100.00
7662;BME280;30314;48.184;11.510;2023-03-14T00:38:36;94436.72;;;9.80;100.00
7662;BME280;30314;48.184;11.510;2023-03-14T00:41:05;94444.94;;;9.79;100.00
7662;BME280;30314;48.184;11.510;2023-03-14T00:43:32;94429.59;;;9.72;100.00
7662;BME280;30314;48.184;11.510;2023-03-14T00:45:59;94452.53;;;9.80;100.00
7662;BME280;30314;48.184;11.510;2023-03-14T00:48:26;94472.25;;;9.83;100.00
7662;BME280;30314;48.184;11.510;2023-03-14T00:50:53;94494.41;;;9.91;100.00
7662;BME280;30314;48.184;11.510;2023-03-14T00:53:19;94478.16;;;9.80;100.00
7662;BME280;30314;48.184;11.510;2023-03-14T00:55:46;94473.00;;;9.83;100.00
7662;BME280;30314;48.184;11.510;2023-03-14T00:58:14;94478.16;;;9.80;100.00
7662;BME280;30314;48.184;11.510;2023-03-14T01:00:42;94476.44;;;9.75;100.00
7662;BME280;30314;48.184;11.510;2023-03-14T01:03:09;94468.69;;;9.70;100.00
7662;BME280;30314;48.184;11.510;2023-03-14T01:05:37;94478.94;;;9.71;100.00
7662;BME280;30314;48.184;11.510;2023-03-14T01:08:06;94497.66;;;9.79;100.00
7662;BME280;30314;48.184;11.510;2023-03-14T01:10:34;94458.00;;;9.57;100.00
7662;BME280;30314;48.184;11.510;2023-03-14T01:13:00;94509.31;;;9.78;100.00
7662;BME280;30314;48.184;11.510;2023-03-14T01:15:27;94484.50;;;9.70;100.00
7662;BME280;30314;48.184;11.510;2023-03-14T01:17:54;94505.28;;;9.80;100.00
7662;BME280;30314;48.184;11.510;2023-03-14T01:20:22;94513.19;;;9.80;100.00
7662;BME280;30314;48.184;11.510;2023-03-14T01:22:48;94507.47;;;9.69;100.00
7662;BME280;30314;48.184;11.510;2023-03-14T01:25:16;94517.38;;;9.81;100.00
7662;BME280;30314;48.184;11.510;2023-03-14T01:27:43;94511.03;;;9.65;100.00
7662;BME280;30314;48.184;11.510;2023-03-14T01:30:11;94506.88;;;9.64;100.00
7662;BME280;30314;48.184;11.510;2023-03-14T01:32:38;94520.66;;;9.61;100.00
7662;BME280;30314;48.184;11.510;2023-03-14T01:35:06;94530.72;;;9.58;100.00
7662;BME280;30314;48.184;11.510;2023-03-14T01:37:33;94519.91;;;9.51;100.00
7662;BME280;30314;48.184;11.510;2023-03-14T01:40:02;94524.25;;;9.47;100.00
7662;BME280;30314;48.184;11.510;2023-03-14T01:42:30;94528.09;;;9.41;100.00
7662;BME280;30314;48.184;11.510;2023-03-14T01:44:58;94541.75;;;9.52;100.00
7662;BME280;30314;48.184;11.510;2023-03-14T01:47:25;94512.00;;;9.34;100.00
7662;BME280;30314;48.184;11.510;2023-03-14T01:50:08;94537.41;;;9.29;100.00
7662;BME280;30314;48.184;11.510;2023-03-14T01:52:46;94517.88;;;9.22;100.00
7662;BME280;30314;48.184;11.510;2023-03-14T01:55:18;94529.19;;;9.22;100.00
7662;BME280;30314;48.184;11.510;2023-03-14T01:57:58;94523.91;;;9.13;100.00
7662;BME280;30314;48.184;11.510;2023-03-14T02:00:26;94536.91;;;9.10;100.00
7662;BME280;30314;48.184;11.510;2023-03-14T02:02:59;94545.56;;;9.10;100.00
7662;BME280;30314;48.184;11.510;2023-03-14T02:05:39;94543.38;;;9.12;100.00
7662;BME280;30314;48.184;11.510;2023-03-14T02:08:14;94529.75;;;9.01;100.00
7662;BME280;30314;48.184;11.510;2023-03-14T02:10:49;94532.84;;;8.95;100.00
7662;BME280;30314;48.184;11.510;2023-03-14T02:13:21;94528.03;;;8.88;100.00
7662;BME280;30314;48.184;11.510;2023-03-14T02:16:07;94512.41;;;8.92;100.00
7662;BME280;30314;48.184;11.510;2023-03-14T02:18:53;94494.69;;;8.57;100.00
7662;BME280;30314;48.184;11.510;2023-03-14T02:21:44;94501.94;;;8.60;100.00
7662;BME280;30314;48.184;11.510;2023-03-14T02:27:14;94476.72;;;8.59;100.00
7662;BME280;30314;48.184;11.510;2023-03-14T02:30:08;94450.06;;;8.52;100.00
7662;BME280;30314;48.184;11.510;2023-03-14T02:32:40;94420.03;;;8.53;100.00
7662;BME280;30314;48.184;11.510;2023-03-14T02:35:11;94402.13;;;8.55;100.00
7662;BME280;30314;48.184;11.510;2023-03-14T02:37:43;94385.09;;;8.61;100.00
7662;BME280;30314;48.184;11.510;2023-03-14T02:40:12;94375.19;;;8.58;100.00
7662;BME280;30314;48.184;11.510;2023-03-14T02:42:40;94346.84;;;8.72;100.00
7662;BME280;30314;48.184;11.510;2023-03-14T02:47:46;94333.06;;;8.67;100.00
7662;BME280;30314;48.184;11.510;2023-03-14T02:50:20;94351.47;;;8.76;100.00
7662;BME280;30314;48.184;11.510;2023-03-14T02:52:47;94340.06;;;8.54;100.00
7662;BME280;30314;48.184;11.510;2023-03-14T02:55:14;94306.75;;;8.23;100.00
7662;BME280;30314;48.184;11.510;2023-03-14T02:57:44;94304.28;;;8.35;100.00
7662;BME280;30314;48.184;11.510;2023-03-14T03:00:10;94355.69;;;8.50;100.00
7662;BME280;30314;48.184;11.510;2023-03-14T03:02:38;94361.84;;;8.45;100.00
7662;BME280;30314;48.184;11.510;2023-03-14T03:05:05;94358.75;;;8.43;100.00
7662;BME280;30314;48.184;11.510;2023-03-14T03:07:31;94353.34;;;8.40;100.00
7662;BME280;30314;48.184;11.510;2023-03-14T03:09:58;94376.41;;;8.52;100.00
7662;BME280;30314;48.184;11.510;2023-03-14T03:12:25;94360.88;;;8.24;100.00
7662;BME280;30314;48.184;11.510;2023-03-14T03:14:51;94366.50;;;8.40;100.00
7662;BME280;30314;48.184;11.510;2023-03-14T03:17:18;94373.59;;;8.39;100.00
7662;BME280;30314;48.184;11.510;2023-03-14T03:19:44;94353.81;;;8.42;100.00
7662;BME280;30314;48.184;11.510;2023-03-14T03:22:11;94352.56;;;8.39;100.00
7662;BME280;30314;48.184;11.510;2023-03-14T03:24:39;94368.50;;;8.43;100.00
7662;BME280;30314;48.184;11.510;2023-03-14T03:27:32;94368.50;;;8.43;100.00
7662;BME280;30314;48.184;11.510;2023-03-14T03:29:59;94367.28;;;8.40;100.00
7662;BME280;30314;48.184;11.510;2023-03-14T03:32:29;94341.72;;;8.23;100.00
7662;BME280;30314;48.184;11.510;2023-03-14T03:34:56;94346.81;;;8.20;100.00
7662;BME280;30314;48.184;11.510;2023-03-14T03:37:23;94365.09;;;8.42;100.00
7662;BME280;30314;48.184;11.510;2023-03-14T03:39:51;94354.44;;;8.48;100.00
7662;BME280;30314;48.184;11.510;2023-03-14T03:42:18;94341.72;;;8.41;100.00
7662;BME280;30314;48.184;11.510;2023-03-14T03:44:45;94324.22;;;8.18;100.00
7662;BME280;30314;48.184;11.510;2023-03-14T03:47:11;94336.75;;;8.22;100.00
7662;BME280;30314;48.184;11.510;2023-03-14T03:49:38;94337.84;;;8.29;100.00
7662;BME280;30314;48.184;11.510;2023-03-14T03:52:08;94356.44;;;8.33;100.00
7662;BME280;30314;48.184;11.510;2023-03-14T03:54:35;94346.06;;;8.28;100.00
7662;BME280;30314;48.184;11.510;2023-03-14T03:57:02;94348.34;;;8.21;100.00
7662;BME280;30314;48.184;11.510;2023-03-14T03:59:29;94338.91;;;8.20;100.00
7662;BME280;30314;48.184;11.510;2023-03-14T04:01:55;94340.75;;;8.19;100.00
7662;BME280;30314;48.184;11.510;2023-03-14T04:04:22;94330.41;;;8.14;100.00
7662;BME280;30314;48.184;11.510;2023-03-14T04:06:49;94295.88;;;7.98;100.00
7662;BME280;30314;48.184;11.510;2023-03-14T04:09:15;94308.09;;;7.94;100.00
7662;BME280;30314;48.184;11.510;2023-03-14T04:11:45;94312.88;;;7.92;100.00
7662;BME280;30314;48.184;11.510;2023-03-14T04:14:21;94347.88;;;8.10;100.00
7662;BME280;30314;48.184;11.510;2023-03-14T04:16:56;94302.28;;;7.65;100.00
7662;BME280;30314;48.184;11.510;2023-03-14T04:19:23;94330.84;;;7.98;100.00
7662;BME280;30314;48.184;11.510;2023-03-14T04:21:52;94306.56;;;7.93;100.00
7662;BME280;30314;48.184;11.510;2023-03-14T04:24:20;94275.72;;;7.67;100.00
7662;BME280;30314;48.184;11.510;2023-03-14T04:26:48;94311.03;;;7.92;100.00
7662;BME280;30314;48.184;11.510;2023-03-14T04:29:14;94286.72;;;7.78;100.00
7662;BME280;30314;48.184;11.510;2023-03-14T04:31:43;94283.16;;;7.73;100.00
7662;BME280;30314;48.184;11.510;2023-03-14T04:34:10;94302.50;;;7.86;100.00
7662;BME280;30314;48.184;11.510;2023-03-14T04:36:43;94317.88;;;8.02;100.00
7662;BME280;30314;48.184;11.510;2023-03-14T04:39:15;94312.44;;;7.89;100.00
7662;BME280;30314;48.184;11.510;2023-03-14T04:41:49;94297.09;;;7.83;100.00
7662;BME280;30314;48.184;11.510;2023-03-14T04:44:17;94321.53;;;7.92;100.00
7662;BME280;30314;48.184;11.510;2023-03-14T04:46:44;94312.09;;;7.82;100.00
7662;BME280;30314;48.184;11.510;2023-03-14T04:49:12;94328.19;;;7.89;100.00
7662;BME280;30314;48.184;11.510;2023-03-14T04:51:38;94311.47;;;7.85;100.00
7662;BME280;30314;48.184;11.510;2023-03-14T04:54:05;94313.00;;;7.78;100.00
7662;BME280;30314;48.184;11.510;2023-03-14T04:56:32;94282.06;;;7.74;100.00
7662;BME280;30314;48.184;11.510;2023-03-14T04:59:00;94243.22;;;7.45;100.00
7662;BME280;30314;48.184;11.510;2023-03-14T05:01:29;94211.84;;;7.40;100.00
7662;BME280;30314;48.184;11.510;2023-03-14T05:04:08;94233.69;;;7.58;100.00
7662;BME280;30314;48.184;11.510;2023-03-14T05:06:53;94254.41;;;7.68;100.00
7662;BME280;30314;48.184;11.510;2023-03-14T05:09:46;94268.03;;;7.79;100.00
7662;BME280;30314;48.184;11.510;2023-03-14T05:12:13;94239.06;;;7.53;100.00
7662;BME280;30314;48.184;11.510;2023-03-14T05:15:00;94264.47;;;7.75;100.00
7662;BME280;30314;48.184;11.510;2023-03-14T05:17:43;94267.72;;;7.81;100.00
7662;BME280;30314;48.184;11.510;2023-03-14T05:20:10;94254.97;;;7.56;100.00
7662;BME280;30314;48.184;11.510;2023-03-14T05:23:11;94254.41;;;7.68;100.00
7662;BME280;30314;48.184;11.510;2023-03-14T05:26:06;94255.00;;;7.65;100.00
7662;BME280;30314;48.184;11.510;2023-03-14T05:28:50;94256.25;;;7.68;100.00
7662;BME280;30314;48.184;11.510;2023-03-14T05:31:28;94258.88;;;7.68;100.00
7662;BME280;30314;48.184;11.510;2023-03-14T05:34:15;94249.59;;;7.61;100.00
7662;BME280;30314;48.184;11.510;2023-03-14T05:37:01;94274.50;;;7.73;100.00
7662;BME280;30314;48.184;11.510;2023-03-14T05:39:59;94248.53;;;7.63;100.00
7662;BME280;30314;48.184;11.510;2023-03-14T05:42:36;94274.00;;;7.53;100.00
7662;BME280;30314;48.184;11.510;2023-03-14T05:45:34;94268.31;;;7.69;100.00
7662;BME280;30314;48.184;11.510;2023-03-14T05:48:15;94218.78;;;7.36;100.00
7662;BME280;30314;48.184;11.510;2023-03-14T05:51:06;94258.41;;;7.57;100.00
7662;BME280;30314;48.184;11.510;2023-03-14T05:53:44;94243.38;;;7.49;100.00
7662;BME280;30314;48.184;11.510;2023-03-14T05:56:31;94251.16;;;7.63;100.00
7662;BME280;30314;48.184;11.510;2023-03-14T05:59:07;94241.41;;;7.63;100.00
7662;BME280;30314;48.184;11.510;2023-03-14T06:01:44;94198.72;;;7.49;100.00
7662;BME280;30314;48.184;11.510;2023-03-14T06:04:17;94193.44;;;7.40;100.00
7662;BME280;30314;48.184;11.510;2023-03-14T06:06:49;94226.41;;;7.64;100.00
7662;BME280;30314;48.184;11.510;2023-03-14T06:09:16;94248.88;;;7.87;100.00
7662;BME280;30314;48.184;11.510;2023-03-14T06:11:42;94233.53;;;7.72;100.00
7662;BME280;30314;48.184;11.510;2023-03-14T06:14:09;94232.59;;;7.68;100.00
7662;BME280;30314;48.184;11.510;2023-03-14T06:16:40;94240.03;;;7.74;100.00
7662;BME280;30314;48.184;11.510;2023-03-14T06:19:07;94245.63;;;7.82;100.00
7662;BME280;30314;48.184;11.510;2023-03-14T06:21:34;94221.00;;;7.69;100.00
7662;BME280;30314;48.184;11.510;2023-03-14T06:24:01;94231.69;;;7.81;100.00
7662;BME280;30314;48.184;11.510;2023-03-14T06:26:30;94228.31;;;7.81;100.00
7662;BME280;30314;48.184;11.510;2023-03-14T06:28:56;94238.22;;;8.01;100.00
7662;BME280;30314;48.184;11.510;2023-03-14T06:31:24;94222.44;;;8.01;100.00
7662;BME280;30314;48.184;11.510;2023-03-14T06:33:55;94220.44;;;7.89;100.00
7662;BME280;30314;48.184;11.510;2023-03-14T06:36:26;94214.22;;;7.85;100.00
7662;BME280;30314;48.184;11.510;2023-03-14T06:38:53;94197.53;;;7.90;100.00
7662;BME280;30314;48.184;11.510;2023-03-14T06:41:19;94118.81;;;7.32;100.00
7662;BME280;30314;48.184;11.510;2023-03-14T06:43:48;94211.16;;;8.01;100.00
7662;BME280;30314;48.184;11.510;2023-03-14T06:46:15;94183.00;;;7.93;100.00
7662;BME280;30314;48.184;11.510;2023-03-14T06:48:42;94173.13;;;7.89;100.00
7662;BME280;30314;48.184;11.510;2023-03-14T06:51:10;94162.44;;;7.77;100.00
7662;BME280;30314;48.184;11.510;2023-03-14T06:53:37;94177.75;;;7.93;100.00
7662;BME280;30314;48.184;11.510;2023-03-14T06:56:05;94170.31;;;7.68;100.00
7662;BME280;30314;48.184;11.510;2023-03-14T06:58:33;94217.19;;;8.01;100.00
7662;BME280;30314;48.184;11.510;2023-03-14T07:01:02;94219.03;;;8.01;100.00
7662;BME280;30314;48.184;11.510;2023-03-14T07:03:35;94178.84;;;7.74;100.00
7662;BME280;30314;48.184;11.510;2023-03-14T07:06:04;94203.13;;;7.88;100.00
7662;BME280;30314;48.184;11.510;2023-03-14T07:08:32;94249.19;;;8.12;100.00
7662;BME280;30314;48.184;11.510;2023-03-14T07:11:00;94247.63;;;8.11;100.00
7662;BME280;30314;48.184;11.510;2023-03-14T07:13:26;94257.06;;;8.12;100.00
7662;BME280;30314;48.184;11.510;2023-03-14T07:15:59;94247.47;;;7.99;100.00
7662;BME280;30314;48.184;11.510;2023-03-14T07:18:26;94262.34;;;8.12;100.00
7662;BME280;30314;48.184;11.510;2023-03-14T07:20:54;94126.88;;;7.44;100.00
7662;BME280;30314;48.184;11.510;2023-03-14T07:23:20;94244.88;;;8.16;100.00
7662;BME280;30314;48.184;11.510;2023-03-14T07:25:50;94239.47;;;8.13;100.00
7662;BME280;30314;48.184;11.510;2023-03-14T07:28:19;94237.44;;;8.10;100.00
7662;BME280;30314;48.184;11.510;2023-03-14T07:30:47;94220.13;;;8.00;100.00
7662;BME280;30314;48.184;11.510;2023-03-14T07:33:24;94220.88;;;8.00;100.00
7662;BME280;30314;48.184;11.510;2023-03-14T07:35:50;94235.44;;;8.15;100.00
7662;BME280;30314;48.184;11.510;2023-03-14T07:38:17;94237.91;;;8.12;100.00
7662;BME280;30314;48.184;11.510;2023-03-14T07:41:05;94239.16;;;8.23;100.00
7662;BME280;30314;48.184;11.510;2023-03-14T07:43:35;94223.53;;;8.09;100.00
7662;BME280;30314;48.184;11.510;2023-03-14T07:46:02;94213.47;;;8.11;100.00
7662;BME280;30314;48.184;11.510;2023-03-14T07:48:28;94210.06;;;8.20;100.00
7662;BME280;30314;48.184;11.510;2023-03-14T07:50:55;94229.72;;;8.31;100.00
7662;BME280;30314;48.184;11.510;2023-03-14T07:53:23;94139.41;;;7.74;100.00
7662;BME280;30314;48.184;11.510;2023-03-14T07:55:54;94236.81;;;8.39;100.00
7662;BME280;30314;48.184;11.510;2023-03-14T07:58:21;94234.34;;;8.34;100.00
7662;BME280;30314;48.184;11.510;2023-03-14T08:00:48;94242.09;;;8.48;100.00
7662;BME280;30314;48.184;11.510;2023-03-14T08:03:15;94185.03;;;8.13;100.00
7662;BME280;30314;48.184;11.510;2023-03-14T08:05:47;94234.19;;;8.39;100.00
7662;BME280;30314;48.184;11.510;2023-03-14T08:08:13;94217.47;;;8.44;100.00
7662;BME280;30314;48.184;11.510;2023-03-14T08:10:40;94222.69;;;8.53;100.00
7662;BME280;30314;48.184;11.510;2023-03-14T08:13:06;94223.34;;;8.50;100.00
7662;BME280;30314;48.184;11.510;2023-03-14T08:15:33;94193.81;;;8.35;100.00
7662;BME280;30314;48.184;11.510;2023-03-14T08:17:59;94225.50;;;8.56;100.00
7662;BME280;30314;48.184;11.510;2023-03-14T08:20:28;94228.41;;;8.72;100.00
7662;BME280;30314;48.184;11.510;2023-03-14T08:22:56;94237.00;;;8.99;100.00
7662;BME280;30314;48.184;11.510;2023-03-14T08:25:24;94243.53;;;8.93;100.00
7662;BME280;30314;48.184;11.510;2023-03-14T08:27:51;94239.53;;;8.78;100.00
7662;BME280;30314;48.184;11.510;2023-03-14T08:30:19;94234.88;;;8.84;100.00
7662;BME280;30314;48.184;11.510;2023-03-14T08:32:46;94226.22;;;8.74;100.00
7662;BME280;30314;48.184;11.510;2023-03-14T08:35:14;94250.34;;;8.94;100.00
7662;BME280;30314;48.184;11.510;2023-03-14T08:37:41;94201.03;;;8.65;100.00
7662;BME280;30314;48.184;11.510;2023-03-14T08:40:08;94249.13;;;8.92;100.00
7662;BME280;30314;48.184;11.510;2023-03-14T08:42:37;94248.19;;;8.87;100.00
7662;BME280;30314;48.184;11.510;2023-03-14T08:45:05;94212.63;;;8.72;100.00
7662;BME280;30314;48.184;11.510;2023-03-14T08:47:32;94244.34;;;8.85;100.00
7662;BME280;30314;48.184;11.510;2023-03-14T08:50:02;94235.53;;;8.81;100.00
7662;BME280;30314;48.184;11.510;2023-03-14T08:52:30;94256.22;;;9.00;100.00
7662;BME280;30314;48.184;11.510;2023-03-14T08:54:57;94258.00;;;9.17;100.00
7662;BME280;30314;48.184;11.510;2023-03-14T08:57:25;94235.91;;;9.00;100.00
7662;BME280;30314;48.184;11.510;2023-03-14T08:59:54;94270.41;;;9.16;100.00
7662;BME280;30314;48.184;11.510;2023-03-14T09:02:22;94280.16;;;9.25;100.00
7662;BME280;30314;48.184;11.510;2023-03-14T09:04:52;94263.34;;;8.99;100.00
7662;BME280;30314;48.184;11.510;2023-03-14T09:07:19;94260.84;;;9.03;100.00
7662;BME280;30314;48.184;11.510;2023-03-14T09:09:46;94265.16;;;9.16;100.00
7662;BME280;30314;48.184;11.510;2023-03-14T09:12:12;94275.00;;;9.37;100.00
7662;BME280;30314;48.184;11.510;2023-03-14T09:14:39;94256.16;;;9.26;100.00
7662;BME280;30314;48.184;11.510;2023-03-14T09:17:05;94286.91;;;9.52;100.00
7662;BME280;30314;48.184;11.510;2023-03-14T09:19:32;94275.72;;;9.55;100.00
7662;BME280;30314;48.184;11.510;2023-03-14T09:21:58;94261.69;;;9.42;100.00
7662;BME280;30314;48.184;11.510;2023-03-14T09:24:25;94245.63;;;9.18;100.00
7662;BME280;30314;48.184;11.510;2023-03-14T09:26:51;94259.09;;;9.25;100.00
7662;BME280;30314;48.184;11.510;2023-03-14T09:29:18;94242.38;;;9.12;100.00
7662;BME280;30314;48.184;11.510;2023-03-14T09:31:44;94272.66;;;9.44;100.00
7662;BME280;30314;48.184;11.510;2023-03-14T09:34:11;94156.44;;;8.68;100.00
7662;BME280;30314;48.184;11.510;2023-03-14T09:36:37;94231.06;;;9.29;100.00
7662;BME280;30314;48.184;11.510;2023-03-14T09:39:05;94240.34;;;9.26;100.00
7662;BME280;30314;48.184;11.510;2023-03-14T09:41:37;94225.50;;;9.52;100.00
7662;BME280;30314;48.184;11.510;2023-03-14T09:44:15;94264.88;;;9.57;100.00
7662;BME280;30314;48.184;11.510;2023-03-14T09:46:45;94254.97;;;9.54;100.00
7662;BME280;30314;48.184;11.510;2023-03-14T09:49:36;94260.19;;;9.63;100.00
7662;BME280;30314;48.184;11.510;2023-03-14T09:52:24;94242.50;;;9.63;100.00
7662;BME280;30314;48.184;11.510;2023-03-14T09:55:13;94244.28;;;9.50;100.00
7662;BME280;30314;48.184;11.510;2023-03-14T09:57:41;94240.34;;;9.56;100.00
7662;BME280;30314;48.184;11.510;2023-03-14T10:00:16;94214.28;;;9.34;100.00
7662;BME280;30314;48.184;11.510;2023-03-14T10:02:50;94244.31;;;9.71;100.00
7662;BME280;30314;48.184;11.510;2023-03-14T10:05:21;94244.81;;;9.65;100.00
7662;BME280;30314;48.184;11.510;2023-03-14T10:07:48;94195.03;;;9.42;100.00
7662;BME280;30314;48.184;11.510;2023-03-14T10:10:20;94214.53;;;9.71;100.00
7662;BME280;30314;48.184;11.510;2023-03-14T10:12:55;94201.09;;;9.64;97.65
7662;BME280;30314;48.184;11.510;2023-03-14T10:15:33;94247.84;;;10.06;97.25
7662;BME280;30314;48.184;11.510;2023-03-14T10:18:02;94239.28;;;10.09;100.00
7662;BME280;30314;48.184;11.510;2023-03-14T10:20:38;94237.00;;;10.20;100.00
7662;BME280;30314;48.184;11.510;2023-03-14T10:23:19;94234.41;;;10.53;100.00
7662;BME280;30314;48.184;11.510;2023-03-14T10:26:08;94234.94;;;10.93;100.00
7662;BME280;30314;48.184;11.510;2023-03-14T10:28:51;94225.94;;;11.06;94.88
7662;BME280;30314;48.184;11.510;2023-03-14T10:31:18;94154.03;;;10.63;98.37
7662;BME280;30314;48.184;11.510;2023-03-14T10:33:59;94216.03;;;10.91;94.13
7662;BME280;30314;48.184;11.510;2023-03-14T10:36:33;94233.88;;;11.06;100.00
7662;BME280;30314;48.184;11.510;2023-03-14T10:39:23;94233.38;;;11.13;90.24
7662;BME280;30314;48.184;11.510;2023-03-14T10:41:53;94218.81;;;11.07;94.57
7662;BME280;30314;48.184;11.510;2023-03-14T10:44:24;94211.44;;;11.00;86.10
7662;BME280;30314;48.184;11.510;2023-03-14T10:47:16;94228.47;;;11.03;90.25
7662;BME280;30314;48.184;11.510;2023-03-14T10:49:43;94228.09;;;10.79;96.58
7662;BME280;30314;48.184;11.510;2023-03-14T10:52:20;94216.78;;;10.79;90.81
7662;BME280;30314;48.184;11.510;2023-03-14T10:55:08;94215.22;;;10.78;88.02
7662;BME280;30314;48.184;11.510;2023-03-14T10:57:41;94211.81;;;10.77;93.35
7662;BME280;30314;48.184;11.510;2023-03-14T11:00:14;94196.72;;;10.78;94.58
7662;BME280;30314;48.184;11.510;2023-03-14T11:03:11;94235.84;;;10.97;92.61
7662;BME280;30314;48.184;11.510;2023-03-14T11:05:58;94238.53;;;11.22;86.19
7662;BME280;30314;48.184;11.510;2023-03-14T11:08:37;94234.81;;;11.23;89.09
7662;BME280;30314;48.184;11.510;2023-03-14T11:11:13;94215.53;;;11.22;81.15
7662;BME280;30314;48.184;11.510;2023-03-14T11:16:46;94225.22;;;11.55;80.72
7662;BME280;30314;48.184;11.510;2023-03-14T11:22:11;94242.19;;;11.54;75.35
7662;BME280;30314;48.184;11.510;2023-03-14T11:24:51;94228.28;;;11.70;81.74
7662;BME280;30314;48.184;11.510;2023-03-14T11:27:36;94226.31;;;11.79;72.48
7662;BME280;30314;48.184;11.510;2023-03-14T11:30:30;94224.91;;;12.10;73.56
7662;BME280;30314;48.184;11.510;2023-03-14T11:33:07;94203.34;;;11.96;81.65
7662;BME280;30314;48.184;11.510;2023-03-14T11:35:45;94207.84;;;12.08;70.61
7662;BME280;30314;48.184;11.510;2023-03-14T11:38:23;94184.63;;;12.01;71.47
7662;BME280;30314;48.184;11.510;2023-03-14T11:40:56;94204.25;;;12.29;75.07
7662;BME280;30314;48.184;11.510;2023-03-14T11:43:35;94201.75;;;12.20;79.46
7662;BME280;30314;48.184;11.510;2023-03-14T11:46:15;94187.78;;;12.07;78.02
7662;BME280;30314;48.184;11.510;2023-03-14T11:48:47;94194.59;;;12.20;76.96
7662;BME280;30314;48.184;11.510;2023-03-14T11:51:21;94163.63;;;11.80;74.71
7662;BME280;30314;48.184;11.510;2023-03-14T11:53:58;94192.97;;;12.03;71.76
7662;BME280;30314;48.184;11.510;2023-03-14T11:56:33;94192.00;;;11.95;74.60
7662;BME280;30314;48.184;11.510;2023-03-14T11:59:16;94200.16;;;11.90;78.10
7662;BME280;30314;48.184;11.510;2023-03-14T12:01:57;94202.06;;;11.90;70.37
7662;BME280;30314;48.184;11.510;2023-03-14T12:04:54;94192.34;;;11.94;72.51
7662;BME280;30314;48.184;11.510;2023-03-14T12:10:39;94207.38;;;11.77;75.67
7662;BME280;30314;48.184;11.510;2023-03-14T12:13:09;94182.94;;;11.55;73.91
7662;BME280;30314;48.184;11.510;2023-03-14T12:15:42;94199.22;;;11.70;75.60
7662;BME280;30314;48.184;11.510;2023-03-14T12:18:28;94203.38;;;11.71;74.27
7662;BME280;30314;48.184;11.510;2023-03-14T12:20:58;94196.03;;;11.64;74.93
7662;BME280;30314;48.184;11.510;2023-03-14T12:23:27;94188.22;;;11.55;71.42
7662;BME280;30314;48.184;11.510;2023-03-14T12:28:43;94197.16;;;11.38;75.72
7662;BME280;30314;48.184;11.510;2023-03-14T12:39:43;94203.50;;;11.75;73.59
7662;BME280;30314;48.184;11.510;2023-03-14T12:45:30;94197.97;;;11.92;70.22
7662;BME280;30314;48.184;11.510;2023-03-14T12:48:22;94215.94;;;11.87;74.18
7662;BME280;30314;48.184;11.510;2023-03-14T12:51:01;94217.72;;;11.70;74.27
7662;BME280;30314;48.184;11.510;2023-03-14T12:56:07;94213.53;;;11.56;74.30
7662;BME280;30314;48.184;11.510;2023-03-14T12:58:49;94210.03;;;11.52;73.52
7662;BME280;30314;48.184;11.510;2023-03-14T13:01:18;94226.00;;;11.44;71.23
7662;BME280;30314;48.184;11.510;2023-03-14T13:03:50;94212.00;;;11.31;71.84
7662;BME280;30314;48.184;11.510;2023-03-14T13:12:12;94237.97;;;11.16;74.83
7662;BME280;30314;48.184;11.510;2023-03-14T13:14:45;94241.59;;;11.11;72.44
7662;BME280;30314;48.184;11.510;2023-03-14T13:17:13;94243.03;;;11.09;77.64
7662;BME280;30314;48.184;11.510;2023-03-14T13:20:12;94234.06;;;10.89;77.91
7662;BME280;30314;48.184;11.510;2023-03-14T13:22:46;94249.25;;;10.92;76.28
7662;BME280;30314;48.184;11.510;2023-03-14T13:25:13;94247.94;;;10.85;81.27
7662;BME280;30314;48.184;11.510;2023-03-14T13:27:40;94255.06;;;10.85;84.88
7662;BME280;30314;48.184;11.510;2023-03-14T13:32:43;94274.22;;;10.82;88.21
7662;BME280;30314;48.184;11.510;2023-03-14T13:35:39;94271.09;;;10.67;91.11
7662;BME280;30314;48.184;11.510;2023-03-14T13:38:16;94280.94;;;10.58;98.72
7662;BME280;30314;48.184;11.510;2023-03-14T13:40:43;94286.38;;;10.40;97.04
7662;BME280;30314;48.184;11.510;2023-03-14T13:43:36;94298.47;;;10.41;100.00
7662;BME280;30314;48.184;11.510;2023-03-14T13:48:35;94315.50;;;10.01;94.82
7662;BME280;30314;48.184;11.510;2023-03-14T13:51:07;94307.72;;;9.75;96.87
7662;BME280;30314;48.184;11.510;2023-03-14T13:53:44;94298.38;;;9.48;98.79
7662;BME280;30314;48.184;11.510;2023-03-14T13:56:11;94332.47;;;9.53;100.00
7662;BME280;30314;48.184;11.510;2023-03-14T13:58:40;94336.97;;;9.52;100.00
7662;BME280;30314;48.184;11.510;2023-03-14T14:01:16;94338.56;;;9.36;100.00
7662;BME280;30314;48.184;11.510;2023-03-14T14:03:46;94345.13;;;9.21;97.86
7662;BME280;30314;48.184;11.510;2023-03-14T14:06:25;94357.03;;;9.27;100.00
7662;BME280;30314;48.184;11.510;2023-03-14T14:09:00;94364.00;;;9.14;100.00